createdAt,value
2019-04-20T00:00:44.518Z,19.00
2019-04-20T00:01:38.857Z,19.00
2019-04-20T00:02:37.789Z,19.00
2019-04-20T00:03:41.742Z,19.00
2019-04-20T00:04:39.069Z,19.00
2019-04-20T00:05:39.130Z,19.00
2019-04-20T00:06:45.891Z,19.02
2019-04-20T00:07:39.670Z,19.02
2019-04-20T00:08:40.878Z,19.02
2019-04-20T00:09:39.968Z,19.02
2019-04-20T00:10:47.570Z,19.02
2019-04-20T00:11:51.721Z,19.02
2019-04-20T00:12:53.386Z,19.02
2019-04-20T00:13:47.644Z,19.00
2019-04-20T00:14:39.657Z,19.04
2019-04-20T00:15:38.841Z,19.02
2019-04-20T00:16:37.876Z,19.02
2019-04-20T00:17:39.389Z,19.00
2019-04-20T00:18:45.936Z,19.00
2019-04-20T00:19:45.024Z,19.02
2019-04-20T00:20:40.299Z,19.00
2019-04-20T00:21:42.753Z,19.00
2019-04-20T00:22:45.458Z,19.00
2019-04-20T00:23:43.033Z,19.02
2019-04-20T00:24:39.357Z,19.00
2019-04-20T00:25:47.029Z,19.00
2019-04-20T00:27:13.696Z,19.00
2019-04-20T00:27:59.614Z,19.00
2019-04-20T00:28:55.966Z,19.00
2019-04-20T00:29:54.736Z,19.00
2019-04-20T00:31:00.012Z,18.99
2019-04-20T00:31:49.185Z,19.00
2019-04-20T00:32:53.244Z,18.99
2019-04-20T00:33:51.638Z,18.99
2019-04-20T00:34:41.960Z,18.99
2019-04-20T00:35:38.426Z,18.99
2019-04-20T00:36:37.437Z,18.99
2019-04-20T00:37:38.032Z,18.98
2019-04-20T00:38:42.651Z,18.99
2019-04-20T00:39:38.386Z,18.99
2019-04-20T00:40:37.417Z,18.99
2019-04-20T00:41:42.406Z,18.99
2019-04-20T00:42:45.205Z,18.99
2019-04-20T00:43:40.526Z,18.99
2019-04-20T00:44:40.575Z,18.99
2019-04-20T00:45:46.884Z,18.99
2019-04-20T00:46:51.254Z,18.99
2019-04-20T00:47:48.914Z,18.99
2019-04-20T00:48:47.355Z,18.98
2019-04-20T00:49:53.648Z,18.99
2019-04-20T00:50:48.835Z,18.98
2019-04-20T00:52:07.496Z,18.99
2019-04-20T00:52:55.516Z,18.98
2019-04-20T00:53:43.185Z,18.98
2019-04-20T00:54:39.067Z,18.98
2019-04-20T00:55:38.040Z,18.99
2019-04-20T00:56:37.201Z,18.98
2019-04-20T00:57:46.602Z,18.98
2019-04-20T00:58:54.717Z,18.98
2019-04-20T01:00:02.624Z,18.99
2019-04-20T01:01:04.102Z,18.98
2019-04-20T01:02:02.048Z,18.98
2019-04-20T01:02:50.723Z,18.98
2019-04-20T01:03:52.244Z,18.98
2019-04-20T01:04:57.872Z,18.95
2019-04-20T01:06:03.369Z,18.98
2019-04-20T01:06:50.318Z,18.98
2019-04-20T01:07:45.477Z,18.99
2019-04-20T01:08:38.113Z,18.98
2019-04-20T01:09:37.085Z,18.98
2019-04-20T01:10:41.646Z,18.98
2019-04-20T01:11:42.169Z,18.98
2019-04-20T01:12:40.463Z,18.95
2019-04-20T01:13:46.082Z,18.95
2019-04-20T01:14:46.232Z,18.98
2019-04-20T01:15:47.157Z,18.98
2019-04-20T01:16:46.994Z,18.98
2019-04-20T01:17:41.415Z,18.98
2019-04-20T01:18:36.970Z,18.95
2019-04-20T01:19:36.985Z,18.95
2019-04-20T01:20:36.980Z,18.98
2019-04-20T01:21:38.271Z,18.99
2019-04-20T01:22:45.528Z,18.98
2019-04-20T01:23:46.195Z,18.98
2019-04-20T01:24:43.278Z,18.98
2019-04-20T01:25:40.965Z,18.98
2019-04-20T01:26:43.772Z,18.95
2019-04-20T01:27:50.140Z,18.95
2019-04-20T01:28:51.204Z,18.98
2019-04-20T01:29:44.325Z,18.98
2019-04-20T01:30:43.165Z,18.95
2019-04-20T01:31:53.108Z,18.98
2019-04-20T01:32:57.529Z,18.98
2019-04-20T01:33:50.878Z,18.98
2019-04-20T01:34:47.479Z,18.95
2019-04-20T01:35:53.450Z,18.95
2019-04-20T01:36:55.705Z,18.98
2019-04-20T01:37:57.414Z,18.98
2019-04-20T01:38:54.739Z,18.95
2019-04-20T01:39:46.292Z,18.95
2019-04-20T01:40:38.171Z,18.98
2019-04-20T01:41:37.166Z,18.95
2019-04-20T01:42:36.730Z,18.95
2019-04-20T01:43:37.458Z,18.98
2019-04-20T01:44:41.953Z,18.95
2019-04-20T01:45:41.937Z,18.98
2019-04-20T01:46:39.145Z,18.95
2019-04-20T01:47:45.256Z,18.95
2019-04-20T01:48:39.930Z,18.98
2019-04-20T01:49:38.475Z,18.95
2019-04-20T01:50:43.424Z,18.95
2019-04-20T01:51:47.262Z,18.98
2019-04-20T01:52:50.736Z,18.95
2019-04-20T01:53:55.120Z,18.95
2019-04-20T01:54:52.316Z,18.95
2019-04-20T01:55:50.713Z,18.98
2019-04-20T01:56:47.262Z,18.98
2019-04-20T01:57:54.769Z,18.95
2019-04-20T01:58:54.973Z,18.98
2019-04-20T01:59:45.973Z,18.95
2019-04-20T02:00:40.714Z,18.95
2019-04-20T02:01:39.667Z,18.95
2019-04-20T02:02:46.075Z,18.95
2019-04-20T02:03:43.355Z,18.95
2019-04-20T02:04:41.025Z,18.95
2019-04-20T02:05:39.041Z,18.95
2019-04-20T02:06:44.402Z,18.94
2019-04-20T02:07:43.877Z,18.95
2019-04-20T02:08:37.867Z,18.94
2019-04-20T02:09:43.397Z,18.94
2019-04-20T02:10:44.375Z,18.94
2019-04-20T02:11:41.368Z,18.95
2019-04-20T02:12:39.567Z,18.94
2019-04-20T02:13:44.422Z,18.95
2019-04-20T02:14:43.666Z,18.95
2019-04-20T02:15:43.327Z,18.94
2019-04-20T02:16:42.505Z,18.95
2019-04-20T02:17:43.328Z,18.92
2019-04-20T02:18:51.456Z,18.94
2019-04-20T02:19:57.340Z,18.94
2019-04-20T02:20:54.606Z,18.94
2019-04-20T02:21:52.005Z,18.95
2019-04-20T02:22:51.807Z,18.94
2019-04-20T02:23:46.222Z,18.95
2019-04-20T02:24:38.694Z,18.95
2019-04-20T02:25:37.580Z,18.94
2019-04-20T02:26:36.730Z,18.95
2019-04-20T02:27:43.272Z,18.94
2019-04-20T02:30:02.513Z,18.94
2019-04-20T02:31:15.636Z,18.94
2019-04-20T02:33:16.642Z,18.94
2019-04-20T02:34:19.861Z,18.94
2019-04-20T02:35:09.066Z,18.94
2019-04-20T02:36:20.979Z,18.94
2019-04-20T02:38:10.543Z,18.92
2019-04-20T02:39:21.509Z,18.94
2019-04-20T02:40:11.564Z,18.94
2019-04-20T02:41:12.908Z,18.95
2019-04-20T02:42:20.330Z,18.94
2019-04-20T02:43:29.697Z,18.92
2019-04-20T02:44:14.715Z,18.94
2019-04-20T02:46:12.827Z,18.95
2019-04-20T02:49:26.178Z,18.95
2019-04-20T02:50:05.198Z,18.95
2019-04-20T02:51:08.989Z,18.95
2019-04-20T02:52:32.210Z,18.95
2019-04-20T02:55:09.271Z,18.95
2019-04-20T02:57:15.086Z,18.95
2019-04-20T02:58:07.761Z,18.94
2019-04-20T03:00:58.369Z,18.95
2019-04-20T03:01:56.265Z,18.94
2019-04-20T03:02:49.873Z,18.95
2019-04-20T03:03:46.241Z,18.94
2019-04-20T03:04:45.306Z,18.95
2019-04-20T03:05:47.724Z,18.95
2019-04-20T03:06:55.831Z,18.95
2019-04-20T03:07:57.525Z,18.94
2019-04-20T03:08:56.571Z,18.95
2019-04-20T03:09:58.423Z,18.94
2019-04-20T03:11:01.107Z,18.94
2019-04-20T03:12:55.019Z,18.94
2019-04-20T03:13:59.085Z,18.94
2019-04-20T03:14:51.653Z,18.95
2019-04-20T03:15:54.954Z,18.94
2019-04-20T03:16:56.643Z,18.94
2019-04-20T03:17:59.122Z,18.94
2019-04-20T03:18:54.608Z,18.94
2019-04-20T03:19:51.245Z,18.94
2019-04-20T03:21:00.705Z,18.92
2019-04-20T03:22:06.423Z,18.94
2019-04-20T03:23:17.662Z,18.94
2019-04-20T03:24:08.398Z,18.94
2019-04-20T03:25:01.966Z,18.94
2019-04-20T03:25:59.464Z,18.94
2019-04-20T03:26:57.012Z,18.95
2019-04-20T03:28:01.483Z,18.94
2019-04-20T03:28:54.248Z,18.94
2019-04-20T03:29:58.923Z,18.94
2019-04-20T03:33:11.927Z,18.92
2019-04-20T03:34:40.956Z,18.92
2019-04-20T03:36:09.316Z,18.91
2019-04-20T03:37:04.135Z,18.92
2019-04-20T03:38:01.654Z,18.92
2019-04-20T03:38:57.478Z,18.91
2019-04-20T03:39:55.465Z,18.92
2019-04-20T03:40:48.285Z,18.94
2019-04-20T03:41:42.856Z,18.92
2019-04-20T03:42:37.100Z,18.94
2019-04-20T03:43:35.408Z,18.92
2019-04-20T03:44:37.202Z,18.92
2019-04-20T03:45:44.769Z,18.92
2019-04-20T03:46:44.655Z,18.91
2019-04-20T03:47:49.786Z,18.92
2019-04-20T03:48:54.657Z,18.94
2019-04-20T03:50:02.707Z,18.92
2019-04-20T03:50:56.403Z,18.91
2019-04-20T03:51:58.832Z,18.92
2019-04-20T03:53:55.212Z,18.91
2019-04-20T03:54:46.915Z,18.92
2019-04-20T03:55:52.894Z,18.91
2019-04-20T03:56:54.082Z,18.92
2019-04-20T03:57:58.730Z,18.91
2019-04-20T03:58:51.204Z,18.94
2019-04-20T03:59:57.668Z,18.92
2019-04-20T04:00:58.301Z,18.91
2019-04-20T04:02:15.904Z,18.92
2019-04-20T04:03:10.936Z,18.91
2019-04-20T04:03:59.320Z,18.91
2019-04-20T04:04:54.570Z,18.91
2019-04-20T04:05:54.795Z,18.91
2019-04-20T04:06:46.318Z,18.91
2019-04-20T04:07:43.190Z,18.92
2019-04-20T04:08:42.587Z,18.92
2019-04-20T04:09:55.658Z,18.92
2019-04-20T04:10:54.917Z,18.92
2019-04-20T04:11:51.346Z,18.91
2019-04-20T04:12:40.330Z,18.92
2019-04-20T04:13:36.081Z,18.92
2019-04-20T04:14:35.068Z,18.92
2019-04-20T04:15:42.150Z,18.91
2019-04-20T04:16:42.801Z,18.91
2019-04-20T04:17:41.635Z,18.92
2019-04-20T04:18:41.025Z,18.91
2019-04-20T04:19:39.626Z,18.91
2019-04-20T04:20:43.659Z,18.92
2019-04-20T04:21:46.840Z,18.91
2019-04-20T04:22:51.493Z,18.91
2019-04-20T04:23:56.247Z,18.92
2019-04-20T04:24:53.053Z,18.91
2019-04-20T04:25:55.660Z,18.92
2019-04-20T04:26:51.548Z,18.94
2019-04-20T04:27:53.189Z,18.91
2019-04-20T04:28:48.733Z,18.92
2019-04-20T04:29:59.500Z,18.91
2019-04-20T04:30:54.575Z,18.92
2019-04-20T04:32:03.641Z,18.91
2019-04-20T04:33:20.124Z,18.92
2019-04-20T04:34:54.226Z,18.91
2019-04-20T04:35:52.726Z,18.92
2019-04-20T04:36:56.115Z,18.91
2019-04-20T04:37:53.539Z,18.92
2019-04-20T04:39:05.467Z,18.91
2019-04-20T04:40:06.099Z,18.91
2019-04-20T04:41:06.506Z,18.92
2019-04-20T04:42:04.992Z,18.92
2019-04-20T04:42:57.865Z,18.90
2019-04-20T04:43:54.213Z,18.91
2019-04-20T04:44:46.459Z,18.92
2019-04-20T04:45:36.990Z,18.91
2019-04-20T04:46:42.579Z,18.91
2019-04-20T04:47:36.745Z,18.92
2019-04-20T04:48:40.311Z,18.92
2019-04-20T04:49:40.061Z,18.92
2019-04-20T04:50:44.871Z,18.92
2019-04-20T04:51:44.683Z,18.92
2019-04-20T04:52:46.252Z,18.91
2019-04-20T04:53:47.639Z,18.92
2019-04-20T04:54:46.322Z,18.92
2019-04-20T04:55:45.814Z,18.91
2019-04-20T04:56:35.615Z,18.91
2019-04-20T04:57:34.640Z,18.92
2019-04-20T04:58:34.598Z,18.92
2019-04-20T04:59:36.158Z,18.91
2019-04-20T05:00:35.870Z,18.91
2019-04-20T05:01:37.003Z,18.91
2019-04-20T05:02:40.590Z,18.92
2019-04-20T05:03:54.033Z,18.91
2019-04-20T05:04:58.428Z,18.92
2019-04-20T05:05:57.215Z,18.94
2019-04-20T05:06:50.664Z,18.92
2019-04-20T05:07:49.638Z,18.91
2019-04-20T05:08:43.063Z,18.92
2019-04-20T05:09:35.915Z,18.92
2019-04-20T05:10:34.859Z,18.92
2019-04-20T05:11:35.483Z,18.90
2019-04-20T05:12:36.986Z,18.92
2019-04-20T05:13:42.848Z,18.92
2019-04-20T05:14:48.316Z,18.91
2019-04-20T05:15:48.609Z,18.91
2019-04-20T05:16:51.261Z,18.91
2019-04-20T05:17:58.021Z,18.91
2019-04-20T05:18:59.310Z,18.91
2019-04-20T05:19:55.299Z,18.92
2019-04-20T05:20:58.871Z,18.91
2019-04-20T05:22:01.171Z,18.91
2019-04-20T05:22:51.317Z,18.91
2019-04-20T05:23:47.712Z,18.92
2019-04-20T05:25:01.098Z,18.92
2019-04-20T05:25:57.154Z,18.91
2019-04-20T05:26:58.233Z,18.91
2019-04-20T05:27:56.428Z,18.91
2019-04-20T05:28:46.233Z,18.91
2019-04-20T05:29:37.814Z,18.91
2019-04-20T05:30:44.138Z,18.91
2019-04-20T05:31:46.200Z,18.94
2019-04-20T05:32:44.605Z,18.92
2019-04-20T05:34:05.650Z,18.92
2019-04-20T05:34:58.173Z,18.92
2019-04-20T05:35:54.747Z,18.92
2019-04-20T05:37:04.758Z,18.94
2019-04-20T05:38:01.084Z,18.92
2019-04-20T05:39:00.265Z,18.92
2019-04-20T05:39:59.702Z,18.92
2019-04-20T05:40:59.478Z,18.94
2019-04-20T05:41:51.456Z,18.92
2019-04-20T05:42:52.500Z,18.94
2019-04-20T05:43:52.389Z,18.91
2019-04-20T05:45:02.065Z,18.92
2019-04-20T05:45:45.134Z,18.94
2019-04-20T05:46:57.150Z,18.92
2019-04-20T05:47:55.166Z,18.94
2019-04-20T05:49:00.795Z,18.94
2019-04-20T05:49:53.767Z,18.92
2019-04-20T05:50:53.117Z,18.92
2019-04-20T05:51:54.709Z,18.94
2019-04-20T05:53:01.775Z,18.94
2019-04-20T05:53:57.423Z,18.94
2019-04-20T05:54:57.305Z,18.92
2019-04-20T05:55:54.432Z,18.94
2019-04-20T05:57:03.235Z,18.94
2019-04-20T05:57:56.620Z,18.94
2019-04-20T05:58:58.068Z,18.95
2019-04-20T06:00:02.188Z,18.95
2019-04-20T06:01:02.736Z,18.95
2019-04-20T06:01:59.153Z,18.95
2019-04-20T06:02:49.761Z,18.94
2019-04-20T06:03:55.491Z,18.94
2019-04-20T06:05:06.854Z,18.95
2019-04-20T06:06:03.762Z,18.94
2019-04-20T06:06:58.188Z,18.95
2019-04-20T06:07:54.779Z,18.95
2019-04-20T06:08:59.626Z,18.95
2019-04-20T06:10:00.592Z,18.94
2019-04-20T06:10:56.734Z,18.95
2019-04-20T06:12:07.567Z,18.95
2019-04-20T06:12:52.966Z,18.98
2019-04-20T06:13:49.761Z,18.95
2019-04-20T06:14:46.805Z,18.95
2019-04-20T06:15:59.838Z,18.95
2019-04-20T06:16:55.938Z,18.95
2019-04-20T06:17:53.102Z,18.95
2019-04-20T06:18:50.782Z,18.98
2019-04-20T06:19:51.967Z,18.98
2019-04-20T06:20:52.486Z,18.95
2019-04-20T06:21:57.684Z,18.95
2019-04-20T06:23:10.062Z,18.95
2019-04-20T06:23:56.479Z,18.98
2019-04-20T06:25:10.096Z,18.98
2019-04-20T06:27:01.006Z,18.99
2019-04-20T06:27:58.136Z,18.98
2019-04-20T06:28:48.938Z,18.98
2019-04-20T06:29:51.598Z,18.98
2019-04-20T06:30:48.050Z,18.98
2019-04-20T06:31:51.933Z,18.99
2019-04-20T06:32:59.436Z,18.98
2019-04-20T06:34:08.899Z,18.98
2019-04-20T06:34:53.586Z,18.99
2019-04-20T06:38:00.737Z,18.98
2019-04-20T06:39:02.674Z,18.99
2019-04-20T06:39:54.403Z,18.98
2019-04-20T06:41:06.372Z,18.99
2019-04-20T06:42:54.860Z,18.98
2019-04-20T06:44:00.654Z,18.99
2019-04-20T06:44:57.802Z,18.99
2019-04-20T06:46:07.105Z,18.99
2019-04-20T06:47:04.117Z,18.99
2019-04-20T06:48:03.249Z,18.99
2019-04-20T06:48:51.665Z,18.99
2019-04-20T06:49:54.850Z,18.99
2019-04-20T06:50:48.893Z,18.99
2019-04-20T06:51:58.929Z,18.98
2019-04-20T06:52:52.552Z,18.99
2019-04-20T06:53:48.665Z,19.00
2019-04-20T06:54:55.172Z,18.99
2019-04-20T06:55:57.704Z,18.99
2019-04-20T06:56:54.495Z,18.99
2019-04-20T06:58:01.336Z,18.98
2019-04-20T06:58:57.721Z,18.99
2019-04-20T06:59:52.556Z,19.00
2019-04-20T07:01:01.301Z,18.99
2019-04-20T07:02:18.357Z,18.99
2019-04-20T07:02:57.560Z,18.99
2019-04-20T07:05:02.530Z,19.00
2019-04-20T07:06:18.897Z,19.00
2019-04-20T07:07:02.345Z,18.98
2019-04-20T07:08:07.000Z,18.99
2019-04-20T07:09:04.267Z,18.99
2019-04-20T07:10:09.383Z,18.99
2019-04-20T07:10:59.397Z,19.00
2019-04-20T07:11:50.680Z,18.99
2019-04-20T07:12:49.353Z,19.00
2019-04-20T07:13:45.862Z,19.02
2019-04-20T07:14:48.840Z,19.00
2019-04-20T07:15:49.724Z,19.00
2019-04-20T07:16:55.716Z,19.00
2019-04-20T07:17:57.533Z,19.00
2019-04-20T07:18:59.253Z,19.00
2019-04-20T07:19:50.165Z,19.00
2019-04-20T07:21:00.533Z,19.00
2019-04-20T07:22:21.652Z,19.00
2019-04-20T07:23:09.517Z,19.00
2019-04-20T07:24:05.049Z,19.00
2019-04-20T07:24:56.471Z,19.02
2019-04-20T07:25:57.015Z,19.02
2019-04-20T07:26:55.932Z,19.00
2019-04-20T07:27:53.749Z,19.00
2019-04-20T07:28:58.955Z,19.02
2019-04-20T07:29:57.464Z,19.02
2019-04-20T07:30:56.929Z,19.00
2019-04-20T07:31:52.716Z,19.00
2019-04-20T07:33:11.407Z,19.02
2019-04-20T07:33:56.790Z,19.02
2019-04-20T07:34:58.578Z,19.02
2019-04-20T07:35:51.642Z,19.00
2019-04-20T07:37:22.028Z,19.04
2019-04-20T07:38:15.386Z,19.02
2019-04-20T07:38:55.204Z,19.02
2019-04-20T07:39:59.417Z,19.02
2019-04-20T07:40:55.241Z,19.02
2019-04-20T07:42:00.649Z,19.00
2019-04-20T07:43:04.038Z,19.02
2019-04-20T07:44:05.930Z,19.02
2019-04-20T07:45:01.546Z,19.02
2019-04-20T07:45:57.138Z,19.02
2019-04-20T07:47:13.696Z,19.02
2019-04-20T07:48:01.618Z,19.02
2019-04-20T07:48:54.109Z,19.02
2019-04-20T07:49:49.749Z,19.02
2019-04-20T07:50:45.589Z,19.04
2019-04-20T07:51:37.526Z,19.02
2019-04-20T07:52:43.849Z,19.04
2019-04-20T07:53:52.164Z,19.04
2019-04-20T07:55:12.190Z,19.04
2019-04-20T07:55:54.070Z,19.02
2019-04-20T07:56:53.750Z,19.04
2019-04-20T07:57:48.788Z,19.06
2019-04-20T07:58:44.133Z,19.06
2019-04-20T07:59:50.951Z,19.07
2019-04-20T08:01:03.963Z,19.06
2019-04-20T08:02:01.213Z,19.08
2019-04-20T08:02:57.285Z,19.07
2019-04-20T08:03:58.738Z,19.06
2019-04-20T08:04:51.203Z,19.07
2019-04-20T08:05:46.645Z,19.08
2019-04-20T08:06:42.162Z,19.07
2019-04-20T08:07:43.118Z,19.07
2019-04-20T08:08:48.987Z,19.08
2019-04-20T08:09:40.762Z,19.08
2019-04-20T08:10:52.327Z,19.08
2019-04-20T08:11:57.878Z,19.08
2019-04-20T08:13:04.914Z,19.08
2019-04-20T08:14:02.364Z,19.08
2019-04-20T08:14:56.939Z,19.08
2019-04-20T08:15:57.189Z,19.08
2019-04-20T08:17:09.831Z,19.08
2019-04-20T08:18:06.494Z,19.08
2019-04-20T08:18:53.828Z,19.08
2019-04-20T08:19:50.936Z,19.10
2019-04-20T08:20:52.875Z,19.10
2019-04-20T08:21:52.147Z,19.10
2019-04-20T08:22:57.031Z,19.10
2019-04-20T08:23:50.258Z,19.11
2019-04-20T08:24:48.239Z,19.11
2019-04-20T08:25:47.525Z,19.11
2019-04-20T08:26:41.586Z,19.10
2019-04-20T08:27:33.798Z,19.11
2019-04-20T08:28:42.364Z,19.13
2019-04-20T08:29:45.189Z,19.14
2019-04-20T08:30:46.737Z,19.14
2019-04-20T08:31:49.015Z,19.14
2019-04-20T08:32:50.656Z,19.14
2019-04-20T08:34:04.423Z,19.16
2019-04-20T08:34:55.957Z,19.16
2019-04-20T08:36:00.922Z,19.16
2019-04-20T08:36:58.532Z,19.18
2019-04-20T08:38:22.166Z,19.18
2019-04-20T08:40:53.927Z,19.18
2019-04-20T08:41:56.381Z,19.21
2019-04-20T08:43:02.411Z,19.21
2019-04-20T08:44:21.724Z,19.19
2019-04-20T08:45:02.267Z,19.19
2019-04-20T08:45:57.509Z,19.19
2019-04-20T08:47:05.150Z,19.19
2019-04-20T08:47:57.060Z,19.19
2019-04-20T08:48:56.501Z,19.21
2019-04-20T08:49:57.130Z,19.19
2019-04-20T08:50:50.649Z,19.19
2019-04-20T08:52:05.772Z,19.19
2019-04-20T08:53:17.344Z,19.19
2019-04-20T08:53:54.066Z,19.19
2019-04-20T08:54:54.175Z,19.19
2019-04-20T08:55:44.952Z,19.19
2019-04-20T08:56:42.434Z,19.22
2019-04-20T08:57:33.601Z,19.21
2019-04-20T08:58:32.007Z,19.21
2019-04-20T08:59:34.802Z,19.22
2019-04-20T09:00:39.636Z,19.21
2019-04-20T09:01:35.819Z,19.21
2019-04-20T09:02:32.650Z,19.22
2019-04-20T09:03:43.810Z,19.22
2019-04-20T09:04:43.225Z,19.22
2019-04-20T09:05:45.835Z,19.21
2019-04-20T09:06:45.670Z,19.22
2019-04-20T09:07:39.123Z,19.22
2019-04-20T09:08:47.745Z,19.21
2019-04-20T09:09:52.580Z,19.21
2019-04-20T09:10:49.521Z,19.21
2019-04-20T09:11:55.524Z,19.21
2019-04-20T09:12:48.865Z,19.21
2019-04-20T09:13:40.615Z,19.19
2019-04-20T09:14:36.117Z,19.22
2019-04-20T09:15:34.087Z,19.22
2019-04-20T09:16:40.896Z,19.21
2019-04-20T09:17:39.686Z,19.22
2019-04-20T09:18:46.626Z,19.23
2019-04-20T09:19:41.776Z,19.25
2019-04-20T09:20:45.387Z,19.26
2019-04-20T09:21:43.716Z,19.29
2019-04-20T09:22:44.435Z,19.29
2019-04-20T09:23:45.682Z,19.31
2019-04-20T09:24:52.827Z,19.31
2019-04-20T09:26:06.313Z,19.31
2019-04-20T09:26:52.269Z,19.31
2019-04-20T09:27:40.594Z,19.32
2019-04-20T09:28:41.735Z,19.32
2019-04-20T09:29:43.791Z,19.31
2019-04-20T09:30:45.522Z,19.28
2019-04-20T09:31:43.316Z,19.29
2019-04-20T09:32:43.961Z,19.29
2019-04-20T09:33:51.626Z,19.31
2019-04-20T09:34:55.431Z,19.31
2019-04-20T09:35:48.616Z,19.28
2019-04-20T09:36:46.246Z,19.28
2019-04-20T09:37:47.167Z,19.29
2019-04-20T09:38:44.356Z,19.28
2019-04-20T09:39:52.396Z,19.28
2019-04-20T09:40:51.026Z,19.31
2019-04-20T09:41:56.537Z,19.29
2019-04-20T09:42:32.534Z,19.29
2019-04-20T09:43:32.401Z,19.28
2019-04-20T09:44:38.440Z,19.29
2019-04-20T09:45:38.176Z,19.28
2019-04-20T09:46:37.779Z,19.29
2019-04-20T09:47:37.007Z,19.31
2019-04-20T09:48:40.294Z,19.29
2019-04-20T09:49:42.756Z,19.29
2019-04-20T09:50:56.485Z,19.29
2019-04-20T09:51:54.104Z,19.31
2019-04-20T09:52:51.282Z,19.29
2019-04-20T09:53:43.141Z,19.29
2019-04-20T09:54:52.649Z,19.31
2019-04-20T09:55:50.904Z,19.29
2019-04-20T09:56:55.257Z,19.32
2019-04-20T09:57:50.230Z,19.29
2019-04-20T09:58:55.186Z,19.31
2019-04-20T09:59:49.976Z,19.31
2019-04-20T10:00:49.347Z,19.32
2019-04-20T10:01:40.219Z,19.32
2019-04-20T10:02:34.976Z,19.36
2019-04-20T10:03:31.319Z,19.33
2019-04-20T10:04:31.392Z,19.33
2019-04-20T10:05:31.543Z,19.36
2019-04-20T10:06:34.540Z,19.36
2019-04-20T10:07:34.343Z,19.36
2019-04-20T10:08:34.912Z,19.36
2019-04-20T10:09:37.627Z,19.36
2019-04-20T10:10:39.977Z,19.37
2019-04-20T10:11:32.235Z,19.37
2019-04-20T10:12:31.576Z,19.37
2019-04-20T10:13:32.203Z,19.37
2019-04-20T10:14:31.202Z,19.37
2019-04-20T10:15:32.715Z,19.39
2019-04-20T10:16:31.512Z,19.39
2019-04-20T10:17:33.239Z,19.39
2019-04-20T10:18:34.175Z,19.39
2019-04-20T10:19:34.720Z,19.40
2019-04-20T10:20:35.175Z,19.40
2019-04-20T10:21:32.124Z,19.41
2019-04-20T10:22:31.114Z,19.41
2019-04-20T10:23:32.379Z,19.41
2019-04-20T10:24:31.096Z,19.41
2019-04-20T10:25:31.104Z,19.43
2019-04-20T10:26:32.333Z,19.43
2019-04-20T10:27:31.063Z,19.41
2019-04-20T10:28:31.801Z,19.41
2019-04-20T10:29:31.363Z,19.43
2019-04-20T10:30:31.029Z,19.43
2019-04-20T10:31:31.042Z,19.41
2019-04-20T10:32:37.716Z,19.43
2019-04-20T10:33:33.421Z,19.44
2019-04-20T10:34:31.000Z,19.44
2019-04-20T10:35:31.729Z,19.44
2019-04-20T10:36:30.964Z,19.43
2019-04-20T10:37:31.533Z,19.44
2019-04-20T10:38:33.707Z,19.43
2019-04-20T10:39:30.933Z,19.43
2019-04-20T10:40:44.939Z,19.43
2019-04-20T10:41:40.902Z,19.44
2019-04-20T10:42:32.203Z,19.44
2019-04-20T10:43:30.894Z,19.44
2019-04-20T10:44:30.884Z,19.47
2019-04-20T10:45:30.939Z,19.44
2019-04-20T10:46:31.148Z,19.46
2019-04-20T10:47:30.849Z,19.47
2019-04-20T10:48:32.025Z,19.47
2019-04-20T10:49:33.146Z,19.47
2019-04-20T10:50:31.258Z,19.47
2019-04-20T10:51:31.454Z,19.46
2019-04-20T10:52:31.987Z,19.48
2019-04-20T10:53:32.087Z,19.48
2019-04-20T10:54:32.248Z,19.47
2019-04-20T10:55:31.446Z,19.46
2019-04-20T10:56:31.740Z,19.47
2019-04-20T10:57:31.261Z,19.47
2019-04-20T10:58:31.765Z,19.47
2019-04-20T10:59:31.846Z,19.47
2019-04-20T11:00:31.364Z,19.46
2019-04-20T11:01:31.622Z,19.47
2019-04-20T11:02:31.911Z,19.47
2019-04-20T11:03:30.672Z,19.47
2019-04-20T11:04:30.664Z,19.47
2019-04-20T11:05:30.767Z,19.47
2019-04-20T11:06:30.647Z,19.47
2019-04-20T11:07:30.634Z,19.47
2019-04-20T11:08:30.757Z,19.46
2019-04-20T11:09:30.611Z,19.47
2019-04-20T11:10:46.757Z,19.47
2019-04-20T11:11:33.316Z,19.46
2019-04-20T11:12:30.581Z,19.48
2019-04-20T11:13:30.577Z,19.47
2019-04-20T11:14:34.554Z,19.47
2019-04-20T11:15:32.448Z,19.47
2019-04-20T11:16:30.687Z,19.46
2019-04-20T11:17:31.745Z,19.46
2019-04-20T11:18:31.409Z,19.48
2019-04-20T11:19:31.587Z,19.48
2019-04-20T11:20:31.087Z,19.47
2019-04-20T11:21:30.526Z,19.48
2019-04-20T11:22:30.603Z,19.48
2019-04-20T11:23:30.463Z,19.48
2019-04-20T11:24:30.446Z,19.48
2019-04-20T11:25:30.436Z,19.50
2019-04-20T11:26:31.763Z,19.47
2019-04-20T11:27:30.417Z,19.50
2019-04-20T11:28:30.410Z,19.48
2019-04-20T11:29:31.776Z,19.48
2019-04-20T11:30:30.397Z,19.47
2019-04-20T11:31:37.295Z,19.47
2019-04-20T11:32:31.391Z,19.48
2019-04-20T11:33:30.355Z,19.47
2019-04-20T11:34:33.954Z,19.48
2019-04-20T11:35:37.293Z,19.48
2019-04-20T11:36:31.320Z,19.48
2019-04-20T11:37:31.045Z,19.48
2019-04-20T11:38:30.324Z,19.47
2019-04-20T11:39:30.295Z,19.50
2019-04-20T11:40:30.830Z,19.50
2019-04-20T11:41:32.732Z,19.48
2019-04-20T11:42:30.266Z,19.48
2019-04-20T11:43:31.423Z,19.48
2019-04-20T11:44:31.696Z,19.48
2019-04-20T11:45:30.926Z,19.47
2019-04-20T11:46:30.577Z,19.48
2019-04-20T11:47:31.472Z,19.47
2019-04-20T11:48:31.609Z,19.48
2019-04-20T11:49:31.352Z,19.48
2019-04-20T11:50:31.471Z,19.47
2019-04-20T11:51:30.167Z,19.47
2019-04-20T11:52:31.974Z,19.47
2019-04-20T11:53:32.228Z,19.48
2019-04-20T11:54:30.510Z,19.46
2019-04-20T11:55:30.715Z,19.46
2019-04-20T11:56:34.807Z,19.46
2019-04-20T11:57:31.287Z,19.44
2019-04-20T11:58:30.405Z,19.46
2019-04-20T11:59:30.562Z,19.44
2019-04-20T12:00:37.061Z,19.46
2019-04-20T12:01:37.120Z,19.46
2019-04-20T12:02:37.865Z,19.46
2019-04-20T12:03:40.198Z,19.44
2019-04-20T12:04:41.124Z,19.46
2019-04-20T12:05:38.064Z,19.44
2019-04-20T12:06:31.209Z,19.46
2019-04-20T12:07:32.309Z,19.46
2019-04-20T12:08:32.128Z,19.46
2019-04-20T12:09:31.290Z,19.44
2019-04-20T12:10:31.405Z,19.44
2019-04-20T12:11:38.387Z,19.44
2019-04-20T12:12:40.067Z,19.43
2019-04-20T12:13:31.072Z,19.43
2019-04-20T12:14:30.460Z,19.44
2019-04-20T12:15:32.167Z,19.44
2019-04-20T12:16:29.900Z,19.44
2019-04-20T12:17:29.887Z,19.44
2019-04-20T12:18:29.907Z,19.44
2019-04-20T12:19:31.080Z,19.43
2019-04-20T12:20:29.877Z,19.44
2019-04-20T12:21:30.730Z,19.44
2019-04-20T12:22:30.397Z,19.44
2019-04-20T12:23:30.620Z,19.44
2019-04-20T12:24:31.184Z,19.44
2019-04-20T12:25:32.621Z,19.44
2019-04-20T12:26:31.002Z,19.46
2019-04-20T12:27:30.465Z,19.46
2019-04-20T12:28:29.774Z,19.44
2019-04-20T12:29:29.966Z,19.44
2019-04-20T12:30:30.028Z,19.46
2019-04-20T12:31:29.744Z,19.46
2019-04-20T12:32:34.161Z,19.46
2019-04-20T12:33:30.801Z,19.46
2019-04-20T12:34:30.716Z,19.46
2019-04-20T12:35:29.981Z,19.46
2019-04-20T12:36:30.225Z,19.46
2019-04-20T12:37:29.673Z,19.47
2019-04-20T12:38:30.810Z,19.46
2019-04-20T12:39:31.124Z,19.47
2019-04-20T12:40:30.156Z,19.46
2019-04-20T12:41:37.154Z,19.46
2019-04-20T12:42:30.876Z,19.47
2019-04-20T12:43:29.890Z,19.47
2019-04-20T12:44:30.028Z,19.47
2019-04-20T12:45:29.590Z,19.48
2019-04-20T12:46:29.741Z,19.48
2019-04-20T12:47:29.863Z,19.48
2019-04-20T12:48:29.561Z,19.48
2019-04-20T12:49:29.668Z,19.50
2019-04-20T12:50:29.867Z,19.48
2019-04-20T12:51:33.561Z,19.51
2019-04-20T12:52:30.517Z,19.51
2019-04-20T12:53:30.711Z,19.51
2019-04-20T12:54:29.493Z,19.50
2019-04-20T12:55:30.548Z,19.51
2019-04-20T12:56:30.588Z,19.51
2019-04-20T12:57:29.463Z,19.51
2019-04-20T12:58:30.590Z,19.54
2019-04-20T12:59:29.722Z,19.54
2019-04-20T13:00:29.753Z,19.54
2019-04-20T13:01:30.235Z,19.54
2019-04-20T13:02:29.408Z,19.54
2019-04-20T13:03:29.744Z,19.54
2019-04-20T13:04:30.149Z,19.54
2019-04-20T13:05:29.713Z,19.55
2019-04-20T13:06:30.022Z,19.54
2019-04-20T13:07:31.598Z,19.56
2019-04-20T13:08:36.160Z,19.55
2019-04-20T13:09:30.639Z,19.56
2019-04-20T13:10:29.577Z,19.55
2019-04-20T13:11:30.814Z,19.56
2019-04-20T13:12:30.448Z,19.56
2019-04-20T13:13:30.444Z,19.56
2019-04-20T13:14:30.470Z,19.58
2019-04-20T13:15:29.289Z,19.56
2019-04-20T13:16:30.402Z,19.58